Time;durP1;ratioP1;P1;durP2;ratioP2;P2;SDS_P1;SDS_P2;PMS_P1;PMS_P2;Temp;Humidity;BMP_temperature;BMP_pressure;BME280_temperature;BME280_humidity;BME280_pressure;Samples;Min_cycle;Max_cycle;Signal;HPM_P1;HPM_P2
2024/02/08 00:00:15;;;;;;;22.40;6.03;;;12.80;99.90;;;12.30;100.00;100103.28;4187020;28;20163;-73
2024/02/08 00:02:16;;;;;;;27.45;5.45;;;12.80;99.90;;;12.27;100.00;100108.91;4186550;28;20037;-73
2024/02/08 00:04:17;;;;;;;33.20;7.10;;;12.80;99.90;;;12.28;100.00;100098.16;4187020;28;20017;-73
2024/02/08 00:06:19;;;;;;;30.75;7.07;;;12.80;99.90;;;12.28;100.00;100102.59;4185803;28;20032;-73
2024/02/08 00:08:20;;;;;;;36.17;9.32;;;12.80;99.90;;;12.28;100.00;100102.59;4185701;28;20136;-73
2024/02/08 00:10:22;;;;;;;43.88;9.88;;;12.80;99.90;;;12.30;100.00;100097.97;4169425;28;20029;-73
2024/02/08 00:12:24;;;;;;;49.80;10.25;;;12.80;99.90;;;12.35;100.00;100114.09;4187132;28;20029;-73
2024/02/08 00:14:24;;;;;;;62.10;11.95;;;12.80;99.90;;;12.28;100.00;100102.59;4186747;28;20021;-73
2024/02/08 00:16:27;;;;;;;51.70;12.15;;;12.80;99.90;;;12.30;100.00;100098.81;4185461;28;20408;-73
2024/02/08 00:18:28;;;;;;;46.17;11.55;;;12.80;99.90;;;12.32;100.00;100096.78;4186715;28;20028;-73
2024/02/08 00:20:28;;;;;;;54.63;10.95;;;12.80;99.90;;;12.33;100.00;100102.91;4186940;28;20021;-73
2024/02/08 00:22:29;;;;;;;60.58;12.57;;;12.80;99.90;;;12.32;100.00;100098.59;4185756;28;20205;-73
2024/02/08 00:24:33;;;;;;;65.68;12.77;;;12.80;99.90;;;12.27;100.00;100103.63;4186554;28;20033;-73
2024/02/08 00:26:34;;;;;;;;;;;12.80;99.90;;;12.28;100.00;100102.59;4185882;28;20021;-73
2024/02/08 00:28:35;;;;;;;70.63;13.07;;;12.80;99.90;;;12.28;100.00;100106.06;4185539;28;19908;-73
2024/02/08 00:30:38;;;;;;;69.68;14.60;;;12.80;99.90;;;12.30;100.00;100103.28;4185602;28;20028;-73
2024/02/08 00:32:38;;;;;;;68.88;13.95;;;12.80;99.90;;;12.26;100.00;100104.63;4185163;28;20108;-73
2024/02/08 00:34:40;;;;;;;66.75;13.23;;;12.80;99.90;;;12.28;100.00;100094.66;4186509;28;20143;-73
2024/02/08 00:36:41;;;;;;;58.55;12.20;;;12.80;99.90;;;12.25;100.00;100105.63;4185355;28;20021;-73
2024/02/08 00:38:44;;;;;;;55.00;13.70;;;12.80;99.90;;;12.21;100.00;100103.34;4186531;28;20021;-73
2024/02/08 00:40:51;;;;;;;61.42;13.00;;;12.80;99.90;;;12.23;100.00;100100.53;4184331;28;20027;-73
2024/02/08 00:42:53;;;;;;;71.80;15.35;;;12.80;99.90;;;12.24;100.00;100098.69;4185402;28;20485;-73
2024/02/08 00:44:53;;;;;;;58.63;14.38;;;12.80;99.90;;;12.29;100.00;100104.25;4184930;28;20039;-73
2024/02/08 00:46:55;;;;;;;69.07;12.25;;;12.80;99.90;;;12.33;100.00;100103.72;4186444;28;20017;-73
2024/02/08 00:48:55;;;;;;;58.13;11.15;;;12.80;99.90;;;12.34;100.00;100104.53;4185858;28;20106;-73
2024/02/08 00:50:56;;;;;;;61.88;13.45;;;12.80;99.90;;;12.32;100.00;100106.53;4186465;28;20033;-73
2024/02/08 00:52:58;;;;;;;68.97;14.02;;;12.80;99.90;;;12.33;100.00;100101.09;4186330;28;20033;-74
2024/02/08 00:55:02;;;;;;;60.35;12.07;;;12.80;99.90;;;12.33;100.00;100105.53;4186163;28;20021;-73
2024/02/08 00:57:10;;;;;;;59.05;11.73;;;12.80;99.90;;;12.35;100.00;100095.59;4184967;28;20108;-73
2024/02/08 00:59:11;;;;;;;71.43;15.10;;;12.80;99.90;;;12.35;100.00;100092.94;4185192;28;20093;-73
2024/02/08 01:01:12;;;;;;;66.32;12.48;;;12.80;99.90;;;12.34;100.00;100083.38;4186196;28;20025;-73
2024/02/08 01:03:13;;;;;;;71.45;13.93;;;12.80;99.90;;;12.37;100.00;100088.28;4184727;28;20025;-73
2024/02/08 01:05:14;;;;;;;71.45;12.18;;;12.80;99.90;;;12.34;100.00;100088.66;4184671;28;20096;-73
2024/02/08 01:07:16;;;;;;;71.13;13.77;;;12.80;99.90;;;12.35;100.00;100079.72;4184832;28;20021;-73
2024/02/08 01:09:16;;;;;;;62.03;12.38;;;12.80;99.90;;;12.37;100.00;100083.00;4185625;28;20086;-73
2024/02/08 01:11:18;;;;;;;72.18;12.60;;;12.80;99.90;;;12.34;100.00;100075.44;4184760;28;20033;-73
2024/02/08 01:13:18;;;;;;;62.30;12.50;;;12.80;99.90;;;12.31;100.00;100060.75;4167579;28;20041;-73
2024/02/08 01:15:20;;;;;;;67.47;13.13;;;12.80;99.90;;;12.36;100.00;100071.63;4185015;28;20492;-73
2024/02/08 01:17:21;;;;;;;64.50;12.38;;;12.80;99.90;;;12.38;100.00;100077.53;4167946;28;20025;-73
2024/02/08 01:19:22;;;;;;;68.35;12.70;;;12.80;99.90;;;12.36;100.00;100061.03;4185516;28;20028;-73
2024/02/08 01:21:23;;;;;;;63.92;13.13;;;12.90;99.90;;;12.43;100.00;100061.94;4167914;28;20040;-73
2024/02/08 01:23:25;;;;;;;61.65;12.30;;;12.90;99.90;;;12.39;100.00;100065.97;4180062;28;20030;-73
2024/02/08 01:25:26;;;;;;;54.97;11.68;;;12.90;99.90;;;12.39;100.00;100062.50;4177654;28;20531;-73
2024/02/08 01:27:29;;;;;;;55.78;10.57;;;12.90;99.90;;;12.39;100.00;100063.31;4184530;28;20025;-73
2024/02/08 01:29:30;;;;;;;48.45;11.20;;;12.90;99.90;;;12.29;100.00;100043.44;4185512;28;20033;-73
2024/02/08 01:31:32;;;;;;;57.00;13.32;;;12.90;99.90;;;12.38;100.00;100060.84;4185871;28;20028;-73
2024/02/08 01:33:36;;;;;;;55.53;12.43;;;12.90;99.90;;;12.44;100.00;100060.09;4184271;28;20036;-73
2024/02/08 01:35:39;;;;;;;68.50;11.98;;;12.90;99.90;;;12.41;100.00;100060.47;4168125;28;20033;-73
2024/02/08 01:37:40;;;;;;;67.18;11.25;;;12.90;99.90;;;12.38;100.00;100051.09;4169344;28;20075;-73
2024/02/08 01:39:43;;;;;;;56.00;13.38;;;12.90;99.90;;;12.41;100.00;100039.31;4167761;28;20028;-73
2024/02/08 01:41:44;;;;;;;53.22;11.18;;;12.90;99.90;;;12.42;100.00;100067.41;4151536;28;20033;-73
2024/02/08 01:43:45;;;;;;;67.68;11.98;;;12.90;99.90;;;12.43;100.00;100047.88;4171245;28;20030;-73
2024/02/08 01:45:46;;;;;;;64.65;10.98;;;12.90;99.90;;;12.42;100.00;100051.56;4184073;28;20029;-73
2024/02/08 01:47:47;;;;;;;53.22;10.35;;;12.90;99.90;;;12.41;100.00;100050.72;4184054;28;20049;-73
2024/02/08 01:49:49;;;;;;;65.63;13.75;;;12.90;99.90;;;12.40;100.00;100049.06;4185549;28;20476;-73
2024/02/08 01:51:59;;;;;;;56.13;12.68;;;12.90;99.90;;;12.42;100.00;100055.03;4185446;28;20108;-74
2024/02/08 01:54:01;;;;;;;53.67;10.80;;;12.90;99.90;;;12.38;100.00;100052.91;4168498;28;20029;-73
2024/02/08 01:56:03;;;;;;;55.63;13.75;;;12.90;99.90;;;12.41;100.00;100041.97;4160441;28;20022;-73
2024/02/08 01:58:09;;;;;;;63.83;12.15;;;12.90;99.90;;;12.38;100.00;100045.81;4161810;28;20036;-73
2024/02/08 02:00:11;;;;;;;68.43;13.15;;;12.90;99.90;;;12.36;100.00;100052.28;4185309;28;20021;-73
2024/02/08 02:02:12;;;;;;;48.15;10.45;;;12.90;99.90;;;12.40;100.00;100048.25;4183927;28;20074;-73
2024/02/08 02:04:15;;;;;;;75.82;13.93;;;12.90;99.90;;;12.34;100.00;100030.47;4185280;28;20104;-73
2024/02/08 02:06:16;;;;;;;59.60;12.60;;;12.90;99.90;;;12.39;100.00;100042.16;4184201;28;20155;-73
2024/02/08 02:08:24;;;;;;;69.10;12.30;;;12.90;99.90;;;12.36;100.00;100033.78;4183885;28;20082;-73
2024/02/08 02:10:29;;;;;;;71.78;10.82;;;12.90;99.90;;;12.37;100.00;100038.03;4185383;28;20039;-73
2024/02/08 02:12:31;;;;;;;53.75;11.20;;;12.90;99.90;;;12.34;100.00;100027.81;4183886;28;20043;-73
2024/02/08 02:14:32;;;;;;;59.33;10.93;;;12.90;99.90;;;12.36;100.00;100039.88;4183996;28;20119;-73
2024/02/08 02:16:33;;;;;;;60.45;11.52;;;12.90;99.90;;;12.37;100.00;100043.31;4183757;28;20017;-73
2024/02/08 02:18:33;;;;;;;55.65;14.02;;;12.90;99.90;;;12.35;100.00;100032.94;4183810;28;20481;-73
2024/02/08 02:20:35;;;;;;;57.10;11.65;;;12.90;99.90;;;12.33;100.00;100024.38;4185103;28;20025;-73
2024/02/08 02:22:42;;;;;;;71.68;12.75;;;12.90;99.90;;;12.31;100.00;100010.50;4185043;28;20044;-73
2024/02/08 02:24:43;;;;;;;61.42;11.52;;;12.90;99.90;;;12.32;100.00;100006.88;4184943;28;20033;-73
2024/02/08 02:26:44;;;;;;;57.38;12.88;;;12.90;99.90;;;12.37;100.00;100001.84;4167253;28;20045;-73
2024/02/08 02:28:46;;;;;;;58.22;13.00;;;12.90;99.90;;;12.39;100.00;100001.66;4185160;28;20021;-73
2024/02/08 02:30:50;;;;;;;57.45;11.70;;;12.90;99.90;;;12.36;100.00;99988.81;4184963;28;20029;-73
2024/02/08 02:32:52;;;;;;;60.72;13.40;;;12.90;99.90;;;12.39;100.00;99994.56;4184971;28;20039;-73
2024/02/08 02:34:53;;;;;;;62.40;11.05;;;12.90;99.90;;;12.38;100.00;99982.31;4183781;28;20116;-73
2024/02/08 02:36:58;;;;;;;66.75;11.77;;;12.90;99.90;;;12.36;100.00;99979.06;4185074;28;20082;-73
2024/02/08 02:38:59;;;;;;;63.72;12.15;;;12.90;99.90;;;12.36;100.00;99978.22;4167549;28;20037;-73
2024/02/08 02:41:06;;;;;;;48.22;11.55;;;12.90;99.90;;;12.34;100.00;99972.28;4185120;28;20020;-74
2024/02/08 02:43:13;;;;;;;70.55;11.35;;;12.90;99.90;;;12.34;100.00;99956.41;4185044;28;20063;-73
2024/02/08 02:45:21;;;;;;;47.53;8.85;;;12.90;99.90;;;12.34;100.00;99965.19;4183590;28;20021;-73
2024/02/08 02:47:25;;;;;;;52.10;10.95;;;12.90;99.90;;;12.32;100.00;99958.44;4183120;28;20032;-73
2024/02/08 02:49:27;;;;;;;46.78;12.43;;;12.90;99.90;;;12.30;100.00;99952.53;4185016;28;20028;-73
2024/02/08 02:51:28;;;;;;;66.20;11.88;;;12.90;99.90;;;12.30;100.00;99949.88;4185057;28;20025;-73
2024/02/08 02:53:31;;;;;;;55.80;11.85;;;12.80;99.90;;;12.35;100.00;99944.84;4184818;28;20021;-73
2024/02/08 02:55:32;;;;;;;65.57;13.23;;;12.90;99.90;;;12.33;100.00;99944.22;4166930;28;20063;-73
2024/02/08 02:57:35;;;;;;;58.80;12.25;;;12.90;99.90;;;12.37;100.00;99929.59;4174941;28;20029;-73
2024/02/08 02:59:37;;;;;;;62.65;10.75;;;12.90;99.90;;;12.44;100.00;99930.50;4185034;28;20041;-73
2024/02/08 03:01:38;;;;;;;55.17;10.88;;;12.90;99.90;;;12.45;100.00;99925.03;4184706;28;20064;-73
2024/02/08 03:03:40;;;;;;;63.28;10.30;;;13.00;99.90;;;12.44;100.00;99914.63;4185361;28;20083;-73
2024/02/08 03:05:45;;;;;;;62.10;11.60;;;13.00;99.90;;;12.45;100.00;99911.81;4179482;28;20057;-73
2024/02/08 03:07:48;;;;;;;66.97;11.98;;;12.90;99.90;;;12.52;100.00;99914.50;4171316;28;20040;-73
2024/02/08 03:09:48;;;;;;;72.38;12.57;;;13.00;99.90;;;12.48;100.00;99905.31;4170027;28;20029;-73
2024/02/08 03:11:50;;;;;;;53.38;10.32;;;13.00;99.90;;;12.47;100.00;99903.66;4184390;28;20025;-73
2024/02/08 03:13:51;;;;;;;58.22;11.75;;;13.00;99.90;;;12.43;100.00;99897.13;4169877;28;20077;-73
2024/02/08 03:15:52;;;;;;;55.35;11.68;;;13.00;99.90;;;12.43;100.00;99891.81;4192883;28;20029;-73
2024/02/08 03:17:53;;;;;;;59.92;12.23;;;12.90;99.90;;;12.42;100.00;99896.31;4169774;28;20021;-73
2024/02/08 03:19:54;;;;;;;49.42;8.80;;;12.90;99.90;;;12.38;100.00;99878.34;4170436;28;20032;-73
2024/02/08 03:21:55;;;;;;;50.97;11.82;;;12.90;99.90;;;12.34;100.00;99872.63;4170114;28;20025;-73
2024/02/08 03:23:56;;;;;;;57.45;11.90;;;12.90;99.90;;;12.33;100.00;99865.72;4173537;28;20041;-73
2024/02/08 03:25:57;;;;;;;60.88;11.63;;;12.80;99.90;;;12.27;100.00;99852.41;4187700;28;20021;-73
2024/02/08 03:27:58;;;;;;;59.60;11.90;;;12.80;99.90;;;12.24;100.00;99860.72;4186458;28;20415;-73
2024/02/08 03:30:02;;;;;;;55.95;11.55;;;12.80;99.90;;;12.19;100.00;99840.13;4187786;28;20485;-73
2024/02/08 03:32:03;;;;;;;62.85;12.73;;;12.80;99.90;;;12.15;100.00;99837.06;4187501;28;20040;-74
2024/02/08 03:34:04;;;;;;;56.88;10.70;;;12.70;99.90;;;12.13;100.00;99843.50;4187395;28;20100;-74
2024/02/08 03:36:06;;;;;;;58.70;11.32;;;12.70;99.90;;;12.10;100.00;99839.44;4187499;28;20051;-73
2024/02/08 03:38:08;;;;;;;46.95;10.32;;;12.60;99.90;;;12.09;100.00;99832.53;4187539;28;20027;-73
2024/02/08 03:40:10;;;;;;;54.92;12.02;;;12.60;99.90;;;12.07;100.00;99839.81;4186296;28;20021;-73
2024/02/08 03:42:11;;;;;;;52.17;11.40;;;12.60;99.90;;;12.09;100.00;99832.53;4187338;28;20029;-73
2024/02/08 03:44:12;;;;;;;64.07;10.27;;;12.60;99.90;;;11.97;100.00;99834.03;4187325;28;20455;-73
2024/02/08 03:46:14;;;;;;;61.40;12.07;;;12.50;99.90;;;11.90;100.00;99830.47;4187245;28;20101;-73
2024/02/08 03:48:15;;;;;;;51.90;10.00;;;12.50;99.90;;;11.87;100.00;99830.03;4187003;28;20053;-73
2024/02/08 03:50:16;;;;;;;57.00;12.00;;;12.50;99.90;;;11.88;100.00;99824.56;4186021;28;20036;-73
2024/02/08 03:52:20;;;;;;;56.90;11.43;;;12.40;99.90;;;11.92;100.00;99828.44;4186129;28;20033;-73
2024/02/08 03:54:24;;;;;;;57.53;10.57;;;12.40;99.90;;;11.93;100.00;99822.16;4187244;28;20485;-73
2024/02/08 03:56:26;;;;;;;;;;;12.50;99.90;;;11.96;100.00;99816.50;4186447;28;20036;-73
2024/02/08 03:58:27;;;;;;;59.50;11.10;;;12.50;99.90;;;11.92;100.00;99803.84;4186972;28;19915;-73
2024/02/08 04:00:28;;;;;;;54.97;11.82;;;12.50;99.90;;;11.92;100.00;99803.84;4185999;28;20033;-73
2024/02/08 04:02:30;;;;;;;49.22;10.27;;;12.50;99.90;;;11.88;100.00;99787.56;4169182;28;20041;-73
2024/02/08 04:04:53;;;;;;;70.75;12.88;;;12.50;99.90;;;11.95;100.00;99799.00;4185868;28;20565;-73
2024/02/08 04:07:14;;;;;;;57.47;11.68;;;12.50;99.90;;;11.90;100.00;99780.25;4174272;28;20431;-73
2024/02/08 04:09:33;;;;;;;51.40;13.13;;;12.50;99.90;;;11.88;100.00;99782.28;4187128;28;20029;-73
2024/02/08 04:53:53;;;;;;;40.30;8.93;;;12.20;99.90;;;11.55;100.00;99710.56;4186085;28;20036;-73
2024/02/08 04:55:54;;;;;;;34.45;8.38;;;12.20;99.90;;;11.59;100.00;99722.38;4176012;28;20139;-73
2024/02/08 04:57:55;;;;;;;28.88;8.52;;;12.20;99.90;;;11.59;100.00;99716.28;4185353;28;20051;-73
2024/02/08 04:59:59;;;;;;;41.50;7.25;;;12.20;99.90;;;11.55;100.00;99729.06;4186140;28;20469;-73
2024/02/08 05:02:00;;;;;;;43.50;8.68;;;12.10;99.90;;;11.54;100.00;99730.06;4185772;28;20021;-74
2024/02/08 05:04:01;;;;;;;40.42;7.78;;;12.10;99.90;;;11.56;100.00;99708.72;4185128;28;20028;-74
2024/02/08 05:06:01;;;;;;;35.67;8.85;;;12.00;99.90;;;11.43;100.00;99692.75;4185787;28;20028;-74
2024/02/08 05:08:03;;;;;;;28.00;6.63;;;12.00;99.90;;;11.45;100.00;99690.75;4185665;28;20032;-74
2024/02/08 05:10:04;;;;;;;31.13;7.95;;;12.00;99.90;;;11.34;100.00;99672.75;4186067;28;20029;-74
2024/02/08 05:12:07;;;;;;;31.05;7.43;;;12.00;99.90;;;11.33;100.00;99665.84;4184930;28;20514;-74
2024/02/08 05:14:08;;;;;;;36.15;7.72;;;11.90;99.90;;;11.30;100.00;99666.22;4184708;28;20173;-74
2024/02/08 05:16:16;;;;;;;28.95;6.32;;;11.90;99.90;;;11.28;100.00;99668.22;4185825;28;20060;-74
2024/02/08 05:18:17;;;;;;;29.17;7.25;;;11.90;99.90;;;11.25;100.00;99660.69;4184664;28;20034;-74
2024/02/08 05:20:18;;;;;;;33.55;8.50;;;11.90;99.90;;;11.24;100.00;99664.31;4184726;28;20025;-74
2024/02/08 05:22:19;;;;;;;31.08;6.78;;;11.80;99.90;;;11.23;100.00;99660.06;4184688;28;20601;-74
2024/02/08 05:24:20;;;;;;;27.27;7.30;;;11.80;99.90;;;11.16;100.00;99651.22;4184434;28;20118;-74
2024/02/08 05:26:25;;;;;;;27.35;6.18;;;11.70;99.90;;;11.18;100.00;99655.31;4184372;28;20508;-73
2024/02/08 05:28:26;;;;;;;27.42;5.63;;;11.70;99.90;;;11.15;100.00;99652.22;4185887;28;20119;-73
2024/02/08 05:30:27;;;;;;;33.30;6.18;;;11.70;99.90;;;11.08;100.00;99641.59;4185839;28;20087;-74
2024/02/08 05:32:28;;;;;;;29.20;5.82;;;11.70;99.90;;;11.09;100.00;99638.78;4185338;28;20021;-74
2024/02/08 05:34:28;;;;;;;25.80;6.60;;;11.70;99.90;;;11.06;100.00;99633.06;4184196;28;20035;-73
2024/02/08 05:36:29;;;;;;;25.95;6.10;;;11.60;99.90;;;11.06;100.00;99628.59;4185738;28;20025;-73
2024/02/08 05:38:37;;;;;;;27.08;6.35;;;11.60;99.90;;;10.99;100.00;99640.09;4185664;28;20036;-74
2024/02/08 05:40:43;;;;;;;28.95;7.03;;;11.60;99.90;;;11.00;100.00;99626.69;4185672;28;20032;-74
2024/02/08 05:42:44;;;;;;;31.27;6.05;;;11.60;99.90;;;10.95;100.00;99621.16;4185647;28;20033;-74
2024/02/08 05:44:47;;;;;;;35.17;7.03;;;11.60;99.90;;;11.01;100.00;99622.25;4185552;28;20571;-73
2024/02/08 05:46:49;;;;;;;35.00;6.15;;;11.60;99.90;;;11.02;100.00;99624.69;4185273;28;20098;-73
2024/02/08 05:48:51;;;;;;;30.13;6.38;;;11.50;99.90;;;11.01;100.00;99604.59;4183933;28;20563;-74
2024/02/08 05:50:56;;;;;;;34.13;5.78;;;11.50;99.90;;;10.95;100.00;99615.91;4185546;28;20035;-74
2024/02/08 05:52:57;;;;;;;33.10;6.90;;;11.50;99.90;;;10.99;100.00;99611.84;4184021;28;20108;-73
2024/02/08 05:54:58;;;;;;;31.83;7.68;;;11.50;99.90;;;10.93;100.00;99617.88;4185281;28;20516;-73
2024/02/08 05:57:03;;;;;;;34.38;8.20;;;11.50;99.90;;;11.04;100.00;99606.88;4183744;28;20435;-73
2024/02/08 05:59:05;;;;;;;29.70;6.55;;;11.50;99.90;;;11.02;100.00;99608.06;4183920;28;20029;-73
2024/02/08 06:01:16;;;;;;;30.95;7.82;;;11.50;99.90;;;11.03;100.00;99602.59;4183990;28;20428;-73
2024/02/08 06:03:27;;;;;;;35.50;6.97;;;11.50;99.90;;;11.04;100.00;99619.22;4183983;28;20140;-73
2024/02/08 06:05:28;;;;;;;39.78;6.50;;;11.50;99.90;;;10.97;100.00;99592.78;4185341;28;20092;-73
2024/02/08 06:07:36;;;;;;;31.75;7.90;;;11.50;99.90;;;11.00;100.00;99605.59;4184248;28;20535;-73
2024/02/08 06:11:49;;;;;;;39.85;7.57;;;11.50;99.90;;;10.98;100.00;99598.88;4184096;28;20500;-73
2024/02/08 06:13:55;;;;;;;34.50;6.30;;;11.50;99.90;;;10.96;100.00;99617.50;4183913;28;20056;-74
2024/02/08 06:16:00;;;;;;;35.92;8.15;;;11.50;99.90;;;10.94;100.00;99606.34;4184949;28;20025;-74
2024/02/08 06:18:05;;;;;;;29.88;6.40;;;11.40;99.90;;;10.96;100.00;99574.50;4185060;28;20112;-73
2024/02/08 06:20:09;;;;;;;;;;;11.50;99.90;;;10.93;100.00;99574.88;4179626;28;20033;-73
2024/02/08 06:22:22;;;;;;;38.42;6.38;;;11.40;99.90;;;10.92;100.00;99574.06;4168768;28;19913;-73
2024/02/08 06:26:28;;;;;;;29.48;7.72;;;11.50;99.90;;;10.97;100.00;99571.66;4185476;28;20273;-73
2024/02/08 06:28:29;;;;;;;32.50;7.78;;;11.50;99.90;;;11.00;100.00;99570.47;4185152;28;20029;-73
2024/02/08 06:30:31;;;;;;;45.97;8.02;;;11.50;99.90;;;10.97;100.00;99558.47;4183888;28;20036;-73
2024/02/08 06:34:55;;;;;;;32.35;6.78;;;11.50;99.90;;;11.00;100.00;99554.63;4184872;28;20025;-73
2024/02/08 06:37:15;;;;;;;37.53;7.60;;;11.60;99.90;;;11.06;100.00;99544.16;4184131;28;20178;-73
2024/02/08 06:39:29;;;;;;;37.00;7.40;;;11.50;99.90;;;11.05;100.00;99547.00;4186896;28;20025;-73
2024/02/08 06:44:42;;;;;;;40.28;7.03;;;11.60;99.90;;;11.02;100.00;99550.00;4187328;28;20087;-73
2024/02/08 06:46:39;;;;;;;35.35;7.20;;;11.60;99.90;;;11.03;100.00;99543.69;4183388;28;20039;-73
2024/02/08 07:37:37;;;;;;;28.88;5.13;;;12.10;99.90;;;11.72;100.00;99475.22;4186410;28;20032;-72
2024/02/08 07:39:46;;;;;;;24.88;6.03;;;12.10;99.90;;;11.85;100.00;99470.84;4186437;28;20029;-72
2024/02/08 07:41:56;;;;;;;31.90;5.85;;;12.20;99.90;;;11.90;100.00;99483.47;4186332;28;20025;-72
2024/02/08 07:43:57;;;;;;;31.98;7.35;;;12.30;99.90;;;11.89;100.00;99469.44;4187363;28;20032;-72
2024/02/08 07:46:04;;;;;;;31.70;6.70;;;12.30;99.90;;;11.95;100.00;99471.31;4185921;28;20032;-72
2024/02/08 07:48:08;;;;;;;36.67;7.25;;;12.40;99.90;;;12.03;100.00;99467.69;4187133;28;20086;-72
2024/02/08 07:50:09;;;;;;;34.13;6.68;;;12.50;99.90;;;12.13;100.00;99468.13;4187033;28;20056;-72
2024/02/08 07:52:19;;;;;;;33.63;6.80;;;12.60;99.90;;;12.21;100.00;99479.34;4187141;28;20056;-72
2024/02/08 07:54:22;;;;;;;30.73;6.40;;;12.70;99.90;;;12.18;100.00;99476.31;4185843;28;20025;-72
2024/02/08 07:58:27;;;;;;;22.00;5.75;;;12.70;99.90;;;12.20;100.00;99483.03;4186058;28;20044;-72
2024/02/08 08:02:35;;;;;;;28.65;7.03;;;12.60;99.90;;;12.08;100.00;99468.72;4187072;28;20025;-72
2024/02/08 08:04:51;;;;;;;29.77;7.20;;;12.60;99.90;;;12.00;100.00;99458.34;4187037;28;20033;-72
2024/02/08 08:06:52;;;;;;;27.38;6.40;;;12.60;99.90;;;11.98;100.00;99464.81;4185886;28;20474;-72
2024/02/08 08:09:01;;;;;;;29.08;7.53;;;12.60;99.90;;;11.96;100.00;99462.38;4185685;28;20123;-72
2024/02/08 08:11:15;;;;;;;32.00;6.78;;;12.50;99.90;;;12.03;100.00;99457.94;4186971;28;20021;-72
2024/02/08 08:13:16;;;;;;;37.70;9.20;;;12.60;99.90;;;12.04;100.00;99462.19;4186798;28;20029;-72
2024/02/08 08:15:17;;;;;;;38.55;7.50;;;12.60;99.90;;;12.09;100.00;99461.63;4186849;28;20397;-72
2024/02/08 08:19:38;;;;;;;26.17;7.13;;;12.60;99.90;;;12.15;100.00;99459.00;4186076;28;20029;-72
2024/02/08 08:22:03;;;;;;;29.38;5.72;;;12.70;99.90;;;12.21;100.00;99452.13;4185536;28;20114;-72
2024/02/08 08:24:07;;;;;;;27.92;7.40;;;12.70;99.90;;;12.24;100.00;99450.91;4186956;28;20071;-72
2024/02/08 08:26:23;;;;;;;27.42;7.18;;;12.70;99.90;;;12.26;100.00;99441.75;4186614;28;20106;-72
2024/02/08 08:28:30;;;;;;;35.13;7.57;;;12.70;99.90;;;12.24;100.00;99443.78;4186826;28;20040;-72
2024/02/08 08:30:38;;;;;;;32.38;6.30;;;12.70;99.90;;;12.29;100.00;99430.78;4185615;28;20058;-72
2024/02/08 08:37:38;;;;;;;27.42;6.68;;;12.80;99.90;;;12.39;100.00;99441.00;4163146;28;20121;-72
2024/02/08 08:39:46;;;;;;;28.83;5.70;;;12.90;99.90;;;12.37;100.00;99432.41;4186475;28;20091;-72
2024/02/08 08:41:48;;;;;;;27.08;6.13;;;12.90;99.90;;;12.38;100.00;99420.84;4185552;28;20452;-72
2024/02/08 08:43:55;;;;;;;26.05;5.93;;;12.90;99.90;;;12.43;100.00;99410.47;4185216;28;20089;-72
2024/02/08 08:45:59;;;;;;;33.40;7.60;;;12.90;99.90;;;12.50;100.00;99400.72;4186291;28;20104;-72
2024/02/08 08:48:00;;;;;;;30.67;6.90;;;13.00;99.90;;;12.48;100.00;99408.06;4186248;28;20045;-72
2024/02/08 08:50:17;;;;;;;28.35;6.13;;;13.00;99.90;;;12.51;100.00;99408.47;4186390;28;20464;-72
2024/02/08 08:52:24;;;;;;;29.38;5.85;;;13.00;99.90;;;12.52;100.00;99410.09;4186449;28;20031;-72
2024/02/08 08:54:29;;;;;;;29.27;6.65;;;13.00;99.90;;;12.48;100.00;99395.66;4186360;28;20043;-72
2024/02/08 08:56:30;;;;;;;38.05;6.65;;;13.00;99.90;;;12.50;100.00;99385.69;4186185;28;20025;-72
2024/02/08 08:58:41;;;;;;;26.80;5.57;;;13.00;99.90;;;12.53;100.00;99389.75;4185113;28;20455;-72
2024/02/08 09:00:55;;;;;;;31.92;8.13;;;13.00;99.90;;;12.52;100.00;99382.81;4186023;28;20029;-72
2024/02/08 09:02:55;;;;;;;23.65;6.43;;;13.10;99.90;;;12.63;100.00;99398.91;4169666;28;20037;-72
2024/02/08 09:04:56;;;;;;;21.02;6.45;;;13.10;99.90;;;12.60;100.00;99393.22;4183413;28;20067;-72
2024/02/08 09:07:08;;;;;;;30.42;6.55;;;13.10;99.90;;;12.61;100.00;99386.91;4169798;28;20489;-72
2024/02/08 09:09:28;;;;;;;24.60;5.85;;;13.10;99.90;;;12.62;100.00;99391.19;4153207;28;20029;-72
2024/02/08 09:11:29;;;;;;;30.38;8.70;;;13.10;99.90;;;12.66;100.00;99377.34;4171483;28;20025;-72
2024/02/08 09:13:37;;;;;;;21.90;6.50;;;13.20;99.90;;;12.67;100.00;99375.50;4186053;28;20053;-72
2024/02/08 09:16:29;;;;;;;26.67;6.20;;;13.20;99.90;;;12.77;100.00;99375.94;4184090;28;20017;-72
2024/02/08 09:18:17;;;;;;;25.10;6.63;;;13.30;99.90;;;12.77;100.00;99371.47;4185632;28;20083;-72
2024/02/08 09:20:23;;;;;;;35.42;6.53;;;13.30;99.90;;;12.83;100.00;99380.41;4185954;28;20021;-72
2024/02/08 09:22:23;;;;;;;33.20;7.32;;;13.30;99.90;;;12.83;100.00;99363.72;4185691;28;20021;-72
2024/02/08 09:24:26;;;;;;;24.85;7.18;;;13.30;99.90;;;12.81;100.00;99371.88;4185626;28;20382;-72
2024/02/08 09:26:46;;;;;;;32.85;6.35;;;13.40;99.90;;;12.81;100.00;99360.47;4184729;28;20029;-74
2024/02/08 09:28:50;;;;;;;25.10;6.28;;;13.40;99.90;;;12.85;100.00;99366.97;4185800;28;20051;-74
2024/02/08 09:30:56;;;;;;;27.75;6.75;;;13.40;99.90;;;12.82;100.00;99365.53;4184737;28;20029;-73
2024/02/08 09:33:03;;;;;;;28.33;6.15;;;13.40;99.90;;;12.82;100.00;99357.59;4184350;28;20040;-75
2024/02/08 09:35:13;;;;;;;33.10;4.97;;;13.40;99.90;;;12.84;100.00;99355.59;4185686;28;20536;-73
2024/02/08 09:37:15;;;;;;;25.48;7.00;;;13.40;99.90;;;12.85;100.00;99356.38;4185631;28;20029;-73
2024/02/08 09:39:16;;;;;;;22.67;5.80;;;13.40;99.90;;;12.81;100.00;99353.34;4184259;28;20033;-73
2024/02/08 09:41:24;;;;;;;24.23;6.63;;;13.40;99.90;;;12.86;100.00;99350.06;4185734;28;20024;-73
2024/02/08 09:43:29;;;;;;;27.65;7.13;;;13.40;99.90;;;12.83;100.00;99348.66;4185558;28;20064;-73
2024/02/08 09:47:35;;;;;;;31.30;6.57;;;13.40;99.90;;;12.97;100.00;99360.84;4184109;28;20029;-73
2024/02/08 09:49:36;;;;;;;30.50;7.55;;;13.50;99.90;;;13.01;100.00;99364.72;4184345;28;20064;-73
2024/02/08 09:51:56;;;;;;;28.20;6.45;;;13.50;99.90;;;12.99;100.00;99352.72;4184306;28;20028;-73
2024/02/08 09:54:14;;;;;;;28.73;6.03;;;13.50;99.90;;;12.85;100.00;99362.50;4185346;28;20037;-73
2024/02/08 09:56:25;;;;;;;25.60;5.97;;;13.40;99.90;;;12.78;100.00;99357.19;4184286;28;20032;-73
2024/02/08 09:58:38;;;;;;;28.33;7.22;;;13.40;99.90;;;12.86;100.00;99358.84;4184037;28;20025;-73
2024/02/08 10:00:57;;;;;;;23.25;6.97;;;13.40;99.90;;;12.82;100.00;99354.94;4184172;28;20020;-73
2024/02/08 10:03:03;;;;;;;26.02;7.07;;;13.40;99.90;;;12.86;100.00;99352.72;4184099;28;20041;-73
2024/02/08 10:05:19;;;;;;;31.33;7.38;;;13.40;99.90;;;12.81;100.00;99348.06;4185140;28;20017;-73
2024/02/08 10:07:33;;;;;;;33.28;8.40;;;13.40;99.90;;;12.78;100.00;99335.22;4184242;28;20591;-73
2024/02/08 10:09:36;;;;;;;;;;;13.30;99.90;;;12.69;100.00;99337.25;4185608;28;20080;-73
2024/02/08 10:11:38;;;;;;;32.67;6.85;;;13.30;99.90;;;12.70;100.00;99346.00;4184031;28;19909;-73
2024/02/08 10:14:01;;;;;;;26.20;6.60;;;13.30;99.90;;;12.69;100.00;99339.09;4185213;28;20574;-73
2024/02/08 10:16:12;;;;;;;32.30;7.95;;;13.30;99.90;;;12.69;100.00;99331.94;4184989;28;20447;-73
2024/02/08 10:18:23;;;;;;;28.83;5.88;;;13.30;99.90;;;12.74;100.00;99336.66;4183741;28;20445;-74
2024/02/08 10:22:26;;;;;;;24.35;7.00;;;13.40;99.90;;;12.83;100.00;99335.44;4185238;28;20104;-73
2024/02/08 10:26:47;;;;;;;30.88;7.47;;;13.40;99.90;;;12.95;100.00;99330.31;4184118;28;20087;-73